Time;durP1;ratioP1;P1;durP2;ratioP2;P2;SDS_P1;SDS_P2;PMS_P1;PMS_P2;Temp;Humidity;BMP_temperature;BMP_pressure;BME280_temperature;BME280_humidity;BME280_pressure;Samples;Min_cycle;Max_cycle;Signal;HPM_P1;HPM_P2
2021/12/25 00:01:05;;;;;;;2.37;2.17;;;4.90;99.90;;;;;;5128821;28;20213;-55
2021/12/25 00:03:33;;;;;;;2.47;2.37;;;4.90;99.90;;;;;;5131325;28;20208;-53
2021/12/25 00:06:02;;;;;;;3.33;3.03;;;4.80;99.90;;;;;;5131227;28;20210;-55
2021/12/25 00:08:32;;;;;;;2.37;2.27;;;4.70;99.90;;;;;;5132021;27;20258;-55
2021/12/25 00:11:01;;;;;;;2.80;2.60;;;4.70;99.90;;;;;;5131232;28;20268;-54
2021/12/25 00:13:30;;;;;;;3.50;2.40;;;4.70;99.90;;;;;;5131429;28;20227;-54
2021/12/25 00:15:58;;;;;;;2.50;2.40;;;4.70;99.90;;;;;;5131201;28;20262;-54
2021/12/25 00:18:28;;;;;;;4.43;4.03;;;4.70;99.90;;;;;;5131309;28;20205;-53
2021/12/25 00:20:56;;;;;;;4.60;4.20;;;4.60;99.90;;;;;;5130881;28;20236;-54
2021/12/25 00:23:25;;;;;;;6.20;5.60;;;4.60;99.90;;;;;;5130973;28;20216;-54
2021/12/25 00:26:01;;;;;;;5.07;3.87;;;4.70;99.90;;;;;;5132289;27;20209;-55
2021/12/25 00:28:50;;;;;;;4.43;4.03;;;4.70;99.90;;;;;;5133679;27;20729;-54
2021/12/25 00:31:45;;;;;;;5.93;5.33;;;4.70;99.90;;;;;;5133833;27;20578;-55
2021/12/25 00:34:15;;;;;;;3.70;3.40;;;4.70;99.90;;;;;;5134742;27;20218;-54
2021/12/25 00:36:43;;;;;;;4.43;4.03;;;4.70;99.90;;;;;;5134234;27;20236;-54
2021/12/25 00:39:13;;;;;;;3.30;3.10;;;4.70;99.90;;;;;;5124517;27;20232;-54
2021/12/25 00:41:41;;;;;;;3.03;2.83;;;4.70;99.90;;;;;;5131560;27;20209;-55
2021/12/25 00:44:09;;;;;;;3.40;3.20;;;4.60;99.90;;;;;;5131400;27;20246;-54
2021/12/25 00:46:38;;;;;;;4.77;4.37;;;4.50;99.90;;;;;;5131755;27;20244;-53
2021/12/25 00:49:06;;;;;;;5.00;4.37;;;4.50;99.90;;;;;;5131892;27;20200;-54
2021/12/25 00:51:35;;;;;;;3.77;3.47;;;4.50;99.90;;;;;;5131270;27;20237;-53
2021/12/25 00:54:04;;;;;;;3.60;3.30;;;4.50;99.90;;;;;;5133604;27;20229;-53
2021/12/25 00:56:32;;;;;;;4.10;3.80;;;4.40;99.90;;;;;;5134439;27;20200;-53
2021/12/25 00:59:00;;;;;;;4.50;4.10;;;4.40;99.90;;;;;;5130701;27;20250;-53
2021/12/25 01:01:29;;;;;;;5.13;4.73;;;4.40;99.90;;;;;;5114155;28;20633;-53
2021/12/25 01:03:57;;;;;;;6.83;6.33;;;4.30;99.90;;;;;;5124821;27;20228;-53
2021/12/25 01:06:25;;;;;;;6.50;5.90;;;4.30;99.90;;;;;;5134545;27;20628;-54
2021/12/25 01:08:55;;;;;;;6.60;6.00;;;4.20;99.90;;;;;;5133920;27;20199;-55
2021/12/25 01:11:25;;;;;;;7.30;6.70;;;4.20;99.90;;;;;;5134272;27;20206;-54
2021/12/25 01:14:00;;;;;;;5.90;5.40;;;4.20;99.90;;;;;;5145629;27;20240;-55
2021/12/25 01:16:55;;;;;;;7.43;6.73;;;4.20;99.90;;;;;;5155469;27;20232;-54
2021/12/25 01:19:39;;;;;;;6.27;5.77;;;4.20;99.90;;;;;;5154457;27;20252;-53
2021/12/25 01:22:32;;;;;;;6.00;5.50;;;4.10;99.90;;;;;;5154988;27;20289;-55
2021/12/25 01:31:04;;;;;;;5.30;4.90;;;4.00;99.90;;;;;;5025949;28;20217;-53
2021/12/25 01:36:39;;;;;;;4.37;4.07;;;3.90;99.90;;;;;;5051552;28;20202;-54
2021/12/25 01:39:14;;;;;;;4.87;4.27;;;3.90;99.90;;;;;;5068360;28;20649;-54
2021/12/25 01:49:58;;;;;;;4.07;3.77;;;3.90;99.90;;;;;;5088556;28;20207;-53
2021/12/25 01:52:30;;;;;;;4.03;3.73;;;3.80;99.90;;;;;;5087153;28;20204;-54
2021/12/25 01:55:00;;;;;;;3.70;3.40;;;3.80;99.90;;;;;;5087575;28;20221;-54
2021/12/25 01:57:29;;;;;;;4.40;4.00;;;3.70;99.90;;;;;;5087952;28;20979;-54
2021/12/25 01:59:59;;;;;;;3.83;3.50;;;3.70;99.90;;;;;;5081688;28;20204;-53
2021/12/25 02:02:28;;;;;;;3.87;3.57;;;3.60;99.90;;;;;;5088088;28;20281;-54
2021/12/25 02:04:57;;;;;;;3.83;3.53;;;3.70;99.90;;;;;;5087639;28;20231;-54
2021/12/25 02:07:25;;;;;;;4.63;3.47;;;3.70;99.90;;;;;;5087260;28;20221;-53
2021/12/25 02:09:53;;;;;;;3.57;3.33;;;3.70;99.90;;;;;;5080013;28;20276;-54
2021/12/25 02:12:22;;;;;;;3.53;3.33;;;3.60;99.90;;;;;;5097318;28;20192;-54
2021/12/25 02:14:52;;;;;;;3.83;3.53;;;3.60;99.90;;;;;;5087927;28;20273;-53
2021/12/25 02:17:27;;;;;;;4.03;3.73;;;3.70;99.90;;;;;;5088011;28;20198;-54
2021/12/25 02:20:16;;;;;;;4.47;4.07;;;3.70;99.90;;;;;;5088162;28;20188;-54
2021/12/25 02:22:45;;;;;;;3.90;3.60;;;3.70;99.90;;;;;;5072935;28;20249;-53
2021/12/25 02:25:14;;;;;;;3.77;3.47;;;3.70;99.90;;;;;;5067459;28;20286;-54
2021/12/25 02:27:44;;;;;;;3.73;3.43;;;3.70;99.90;;;;;;5076671;28;20219;-55
2021/12/25 02:30:12;;;;;;;3.73;3.43;;;3.70;99.90;;;;;;5067093;28;20735;-53
2021/12/25 02:32:44;;;;;;;3.87;3.57;;;3.70;99.90;;;;;;5067374;28;20205;-54
2021/12/25 02:35:15;;;;;;;3.60;3.30;;;3.70;99.90;;;;;;5066328;28;20260;-54
2021/12/25 02:37:44;;;;;;;4.43;4.03;;;3.70;99.90;;;;;;5062719;28;20198;-53
2021/12/25 02:40:14;;;;;;;4.20;3.90;;;3.80;99.90;;;;;;5053975;28;20221;-54
2021/12/25 02:42:42;;;;;;;4.50;4.20;;;3.70;99.90;;;;;;5053593;28;20218;-53
2021/12/25 02:45:16;;;;;;;4.20;3.90;;;3.70;99.90;;;;;;5053550;28;20657;-53
2021/12/25 02:47:46;;;;;;;4.00;3.70;;;3.60;99.90;;;;;;5053655;28;20316;-54
2021/12/25 02:50:23;;;;;;;4.57;4.17;;;3.60;99.90;;;;;;5052982;28;20255;-55
2021/12/25 02:52:52;;;;;;;5.23;4.73;;;3.60;99.90;;;;;;5060725;28;20205;-53
2021/12/25 02:55:20;;;;;;;4.23;3.93;;;3.60;99.90;;;;;;5073542;28;20226;-54
2021/12/25 02:57:52;;;;;;;4.30;4.00;;;3.60;99.90;;;;;;5073171;28;20205;-53
2021/12/25 03:00:22;;;;;;;4.20;3.90;;;3.60;99.90;;;;;;5058469;28;20206;-53
2021/12/25 03:02:50;;;;;;;4.10;3.80;;;3.50;99.90;;;;;;5053478;28;20263;-52
2021/12/25 03:05:20;;;;;;;3.80;3.50;;;3.40;99.90;;;;;;5053457;28;20230;-53
2021/12/25 03:07:48;;;;;;;3.90;3.60;;;3.40;99.90;;;;;;5064069;28;20258;-53
2021/12/25 03:10:18;;;;;;;3.77;3.47;;;3.40;99.90;;;;;;5073233;28;20286;-53
2021/12/25 03:12:50;;;;;;;4.07;3.77;;;3.30;99.90;;;;;;5069417;28;20271;-53
2021/12/25 03:15:27;;;;;;;4.10;3.80;;;3.30;99.90;;;;;;5072925;28;20237;-53
2021/12/25 03:17:57;;;;;;;3.83;3.53;;;3.30;99.90;;;;;;5073409;28;20214;-54
2021/12/25 03:20:26;;;;;;;4.13;3.73;;;3.30;99.90;;;;;;5072621;28;20206;-54
2021/12/25 03:22:54;;;;;;;3.93;3.57;;;3.20;99.90;;;;;;5073256;28;20726;-53
2021/12/25 03:25:23;;;;;;;4.07;3.77;;;3.30;99.90;;;;;;5073277;28;20277;-53
2021/12/25 03:27:51;;;;;;;3.43;3.23;;;3.20;99.90;;;;;;5072212;28;20224;-53
2021/12/25 03:30:22;;;;;;;3.93;3.63;;;3.20;99.90;;;;;;5073048;28;20210;-53
2021/12/25 03:32:50;;;;;;;4.70;3.63;;;3.20;99.90;;;;;;5072628;28;20231;-52
2021/12/25 03:35:19;;;;;;;4.30;4.00;;;3.10;99.90;;;;;;5072494;28;20286;-54
2021/12/25 03:37:48;;;;;;;4.37;3.97;;;3.10;99.90;;;;;;5058320;28;20251;-53
2021/12/25 03:40:17;;;;;;;4.43;4.03;;;3.00;99.90;;;;;;5052813;28;20202;-53
2021/12/25 03:42:45;;;;;;;4.10;3.80;;;3.00;99.90;;;;;;5052793;28;20570;-54
2021/12/25 03:45:13;;;;;;;4.43;4.03;;;2.90;99.90;;;;;;5052507;28;20229;-52
2021/12/25 03:47:41;;;;;;;4.20;3.53;;;3.00;99.90;;;;;;5052872;28;20261;-53
2021/12/25 03:53:22;;;;;;;3.97;3.67;;;2.90;99.90;;;;;;5066172;28;20208;-53
2021/12/25 03:58:36;;;;;;;4.00;3.70;;;3.00;99.90;;;;;;5072342;28;20236;-53
2021/12/25 04:01:27;;;;;;;3.60;3.30;;;3.10;99.90;;;;;;5072543;28;20577;-52
2021/12/25 04:04:08;;;;;;;3.70;3.40;;;3.00;99.90;;;;;;5072420;28;20278;-53
2021/12/25 04:06:44;;;;;;;4.13;3.70;;;3.00;99.90;;;;;;5071758;28;20197;-54
2021/12/25 04:09:23;;;;;;;3.13;2.93;;;3.00;99.90;;;;;;5072141;28;20774;-54
2021/12/25 04:11:51;;;;;;;3.50;3.20;;;3.00;99.90;;;;;;5071929;28;20189;-55
2021/12/25 04:14:20;;;;;;;3.90;3.60;;;2.90;99.90;;;;;;5068113;28;20225;-54
2021/12/25 04:16:48;;;;;;;3.63;3.33;;;2.90;99.90;;;;;;5072053;28;20213;-54
2021/12/25 04:19:17;;;;;;;3.93;3.53;;;2.90;99.90;;;;;;5071491;28;20259;-54
2021/12/25 04:21:52;;;;;;;3.80;3.50;;;2.90;99.90;;;;;;5072077;28;20213;-55
2021/12/25 04:24:23;;;;;;;3.57;3.33;;;2.80;99.90;;;;;;5071592;28;20712;-53
2021/12/25 04:26:51;;;;;;;3.73;3.43;;;2.80;99.90;;;;;;5071426;28;20216;-54
2021/12/25 04:29:39;;;;;;;3.50;3.20;;;2.80;99.90;;;;;;5071805;28;20271;-54
2021/12/25 04:49:24;;;;;;;3.90;3.60;;;2.70;99.90;;;;;;5070910;28;20229;-54
2021/12/25 05:03:11;;;;;;;3.70;3.40;;;2.50;99.90;;;;;;5051053;28;20206;-54
2021/12/25 05:05:41;;;;;;;4.43;4.03;;;2.50;99.90;;;;;;5050909;28;20316;-53
2021/12/25 05:08:09;;;;;;;4.17;3.87;;;2.50;99.90;;;;;;5065773;28;20565;-53
2021/12/25 05:10:37;;;;;;;4.43;4.03;;;2.40;99.90;;;;;;5064116;28;20674;-54
2021/12/25 05:13:06;;;;;;;6.07;4.57;;;2.40;99.90;;;;;;5054602;28;20639;-53
2021/12/25 05:15:35;;;;;;;4.50;4.10;;;2.40;99.90;;;;;;5051613;28;20298;-54
2021/12/25 05:18:05;;;;;;;4.00;3.60;;;2.40;99.90;;;;;;5051145;28;20288;-55
2021/12/25 05:20:33;;;;;;;4.93;4.43;;;2.40;99.90;;;;;;5051207;28;20236;-54
2021/12/25 05:23:01;;;;;;;4.30;3.90;;;2.30;99.90;;;;;;5050999;28;20216;-54
2021/12/25 05:25:29;;;;;;;4.60;4.20;;;2.30;99.90;;;;;;5050751;28;20281;-54
2021/12/25 05:27:59;;;;;;;5.23;4.73;;;2.20;99.90;;;;;;5062627;28;20218;-53
2021/12/25 05:30:30;;;;;;;4.60;4.20;;;2.20;99.90;;;;;;5071118;28;20677;-54
2021/12/25 05:32:58;;;;;;;4.47;4.07;;;2.20;99.90;;;;;;5054354;28;20223;-53
2021/12/25 05:35:26;;;;;;;4.70;4.30;;;2.20;99.90;;;;;;5050881;28;20278;-53
2021/12/25 05:37:58;;;;;;;4.67;4.27;;;2.10;99.90;;;;;;5050916;28;20205;-54
2021/12/25 05:40:26;;;;;;;5.30;4.20;;;2.10;99.90;;;;;;5050915;28;20255;-54
2021/12/25 05:42:55;;;;;;;4.43;4.07;;;2.20;99.90;;;;;;5051139;28;20206;-54
2021/12/25 05:45:23;;;;;;;4.70;4.30;;;2.10;99.90;;;;;;5052318;28;20295;-53
2021/12/25 05:47:52;;;;;;;4.50;4.10;;;2.10;99.90;;;;;;5065521;28;20680;-54
2021/12/25 05:50:21;;;;;;;5.03;4.53;;;2.00;99.90;;;;;;5070845;28;20270;-54
2021/12/25 05:52:49;;;;;;;5.17;4.67;;;2.00;99.90;;;;;;5070593;28;20253;-53
2021/12/25 05:55:17;;;;;;;4.70;4.30;;;1.90;99.90;;;;;;5070547;28;20225;-54
2021/12/25 05:57:45;;;;;;;5.37;4.87;;;1.90;99.90;;;;;;5070055;28;20209;-53
2021/12/25 06:00:14;;;;;;;5.20;4.70;;;1.70;99.90;;;;;;5070659;28;20203;-54
2021/12/25 06:02:42;;;;;;;4.70;4.30;;;1.70;99.90;;;;;;5070495;28;20253;-53
2021/12/25 06:05:15;;;;;;;4.53;4.13;;;1.80;99.90;;;;;;5069799;28;20603;-53
2021/12/25 06:07:43;;;;;;;3.30;3.00;;;1.80;99.90;;;;;;5060186;28;20687;-54
2021/12/25 06:10:12;;;;;;;3.70;3.40;;;1.80;99.90;;;;;;5050255;28;20248;-53
2021/12/25 06:12:42;;;;;;;4.33;3.93;;;1.70;99.90;;;;;;5054374;28;20664;-53
2021/12/25 06:15:12;;;;;;;4.17;3.60;;;1.70;99.90;;;;;;5053520;28;20235;-56
2021/12/25 06:17:40;;;;;;;4.27;3.87;;;1.70;99.90;;;;;;5054327;28;20255;-55
2021/12/25 06:20:10;;;;;;;4.60;4.20;;;1.70;99.90;;;;;;5054353;28;20205;-56
2021/12/25 06:22:40;;;;;;;5.57;4.30;;;1.70;99.90;;;;;;5054142;28;20202;-53
2021/12/25 06:25:09;;;;;;;4.47;4.07;;;1.70;99.90;;;;;;5054106;28;20255;-54
2021/12/25 06:27:38;;;;;;;4.20;3.90;;;1.70;99.90;;;;;;5058301;28;20240;-54
2021/12/25 06:30:08;;;;;;;4.37;3.97;;;1.70;99.90;;;;;;5059288;28;20289;-54
2021/12/25 06:32:36;;;;;;;3.83;3.53;;;1.70;99.90;;;;;;5074350;28;20246;-52
2021/12/25 06:35:05;;;;;;;4.30;3.90;;;1.70;99.90;;;;;;5073785;28;20274;-54
2021/12/25 06:37:33;;;;;;;4.10;3.80;;;1.70;99.90;;;;;;5066251;28;20392;-54
2021/12/25 06:40:03;;;;;;;4.17;3.77;;;1.70;99.90;;;;;;5073044;28;20262;-54
2021/12/25 06:42:31;;;;;;;3.93;3.63;;;1.70;99.90;;;;;;5072855;28;20207;-54
2021/12/25 06:44:59;;;;;;;3.97;3.60;;;1.60;99.90;;;;;;5057705;28;20275;-56
2021/12/25 06:47:28;;;;;;;3.67;3.37;;;1.70;99.90;;;;;;5053182;28;20251;-54
2021/12/25 06:49:56;;;;;;;3.53;3.27;;;1.70;99.90;;;;;;5058897;28;20781;-54
2021/12/25 06:52:24;;;;;;;4.03;3.73;;;1.70;99.90;;;;;;5072933;28;20197;-55
2021/12/25 06:54:52;;;;;;;4.53;3.73;;;1.70;99.90;;;;;;5073203;28;20225;-55
2021/12/25 06:57:21;;;;;;;4.07;3.67;;;1.70;99.90;;;;;;5072945;28;20217;-53
2021/12/25 06:59:49;;;;;;;4.73;4.33;;;1.70;99.90;;;;;;5062550;28;20201;-56
2021/12/25 07:02:17;;;;;;;4.37;3.97;;;1.60;99.90;;;;;;5053307;28;20667;-54
2021/12/25 07:04:46;;;;;;;4.20;3.80;;;1.60;99.90;;;;;;5073036;28;20225;-56
2021/12/25 07:07:16;;;;;;;4.03;3.70;;;1.60;99.90;;;;;;5073456;28;20259;-56
2021/12/25 07:09:44;;;;;;;4.23;3.93;;;1.70;99.90;;;;;;5072938;28;20577;-55
2021/12/25 07:12:12;;;;;;;4.17;3.83;;;1.60;99.90;;;;;;5071958;28;20696;-55
2021/12/25 07:14:41;;;;;;;4.37;4.07;;;1.60;99.90;;;;;;5070509;28;20252;-56
2021/12/25 07:17:09;;;;;;;4.40;4.00;;;1.60;99.90;;;;;;5072911;28;20254;-53
2021/12/25 07:19:37;;;;;;;5.93;4.40;;;1.70;99.90;;;;;;5073010;28;20200;-54
2021/12/25 07:22:06;;;;;;;5.10;4.60;;;1.70;99.90;;;;;;5073010;28;20208;-56
2021/12/25 07:24:34;;;;;;;4.10;3.80;;;1.60;99.90;;;;;;5051710;28;20228;-53
2021/12/25 07:27:05;;;;;;;5.50;4.90;;;1.60;99.90;;;;;;5052555;28;20218;-53
2021/12/25 07:29:33;;;;;;;5.27;4.77;;;1.60;99.90;;;;;;5053847;28;20270;-54
2021/12/25 07:32:03;;;;;;;4.87;4.47;;;1.50;99.90;;;;;;5052760;28;20282;-54
2021/12/25 07:34:32;;;;;;;4.00;3.70;;;1.60;99.90;;;;;;5051802;28;20729;-55
2021/12/25 07:37:00;;;;;;;4.87;4.47;;;1.60;99.90;;;;;;5057856;28;20240;-54
2021/12/25 07:39:28;;;;;;;4.50;4.10;;;1.60;99.90;;;;;;5051864;28;20268;-54
2021/12/25 07:41:57;;;;;;;29.57;20.37;;;1.60;99.90;;;;;;5052180;28;20214;-54
2021/12/25 07:44:25;;;;;;;3.77;3.47;;;1.60;99.90;;;;;;5054437;28;20753;-55
2021/12/25 07:46:54;;;;;;;3.93;3.63;;;1.50;99.90;;;;;;5054931;28;20260;-54
2021/12/25 07:49:23;;;;;;;3.97;3.67;;;1.40;99.90;;;;;;5052366;28;20232;-53
2021/12/25 07:51:51;;;;;;;3.33;3.10;;;1.40;99.90;;;;;;5056765;28;20257;-53
2021/12/25 07:54:20;;;;;;;3.87;3.57;;;1.40;99.90;;;;;;5055030;28;20581;-55
2021/12/25 07:56:48;;;;;;;3.63;3.17;;;1.40;99.90;;;;;;5053517;28;20240;-55
2021/12/25 07:59:16;;;;;;;3.13;2.83;;;1.40;99.90;;;;;;5051928;28;20207;-54
2021/12/25 08:01:45;;;;;;;3.20;2.90;;;1.50;99.90;;;;;;5052084;28;20268;-54
2021/12/25 08:04:13;;;;;;;3.23;2.93;;;1.40;99.90;;;;;;5051201;28;20238;-55
2021/12/25 08:06:43;;;;;;;3.40;3.10;;;1.50;99.90;;;;;;5067733;28;20217;-53
2021/12/25 08:09:12;;;;;;;3.43;3.13;;;1.50;99.90;;;;;;5070555;28;20227;-54
2021/12/25 08:11:40;;;;;;;3.10;2.80;;;1.40;99.90;;;;;;5071243;28;20212;-53
2021/12/25 08:14:08;;;;;;;5.10;4.63;;;1.30;99.90;;;;;;5072487;28;20224;-54
2021/12/25 08:16:38;;;;;;;3.90;3.60;;;1.40;99.90;;;;;;5072109;28;20216;-54
2021/12/25 08:19:06;;;;;;;4.53;4.10;;;1.40;99.90;;;;;;5072093;28;20253;-53
2021/12/25 08:21:34;;;;;;;16.73;11.40;;;1.30;99.90;;;;;;5071959;28;20201;-55
2021/12/25 08:24:04;;;;;;;5.83;4.83;;;1.20;99.90;;;;;;5059712;28;20232;-54
2021/12/25 08:26:33;;;;;;;3.53;3.13;;;1.20;99.90;;;;;;5051952;28;20215;-54
2021/12/25 08:29:01;;;;;;;2.80;2.60;;;1.20;99.90;;;;;;5072974;28;20211;-56
2021/12/25 08:31:29;;;;;;;2.67;2.47;;;1.20;99.90;;;;;;5073075;28;20293;-53
2021/12/25 08:33:57;;;;;;;3.07;2.50;;;1.20;99.90;;;;;;5071162;28;20412;-53
2021/12/25 08:36:25;;;;;;;2.50;2.30;;;1.30;99.90;;;;;;5071424;28;20741;-55
2021/12/25 08:38:54;;;;;;;2.40;2.20;;;1.30;99.90;;;;;;5072564;28;20209;-55
2021/12/25 08:41:30;;;;;;;2.13;2.03;;;1.30;99.90;;;;;;5071219;28;20205;-55
2021/12/25 08:44:05;;;;;;;2.67;2.30;;;1.20;99.90;;;;;;5063415;28;20278;-56
2021/12/25 08:46:45;;;;;;;2.13;2.03;;;1.10;99.90;;;;;;5070837;28;20207;-54
2021/12/25 08:49:16;;;;;;;2.57;2.07;;;1.00;99.90;;;;;;5071472;28;20205;-56
2021/12/25 08:51:45;;;;;;;2.97;2.73;;;1.10;99.90;;;;;;5053180;28;20645;-55
2021/12/25 08:54:14;;;;;;;2.33;2.20;;;1.00;99.90;;;;;;5070343;28;20228;-54
2021/12/25 08:56:44;;;;;;;2.70;2.03;;;1.10;99.90;;;;;;5053180;28;20676;-55
2021/12/25 08:59:12;;;;;;;2.57;2.37;;;1.10;99.90;;;;;;5049508;28;20205;-56
2021/12/25 09:01:40;;;;;;;2.70;2.50;;;1.00;99.90;;;;;;5049577;28;20211;-55
2021/12/25 09:04:08;;;;;;;2.97;2.77;;;0.90;99.90;;;;;;5049250;28;20234;-56
2021/12/25 09:06:38;;;;;;;3.27;2.00;;;0.90;99.90;;;;;;5050934;28;20249;-54
2021/12/25 09:09:07;;;;;;;2.50;2.30;;;1.00;99.90;;;;;;5069186;28;20211;-54
2021/12/25 09:11:35;;;;;;;2.37;2.20;;;0.90;99.90;;;;;;5069139;28;20273;-55
2021/12/25 09:14:05;;;;;;;3.50;3.20;;;0.90;99.90;;;;;;5068562;28;20280;-55
2021/12/25 09:16:34;;;;;;;2.57;2.37;;;1.00;99.90;;;;;;5071218;28;20727;-55
2021/12/25 09:19:03;;;;;;;2.10;1.90;;;0.90;99.90;;;;;;5061566;28;20253;-54
2021/12/25 09:21:31;;;;;;;2.17;2.07;;;0.90;99.90;;;;;;5051123;28;20229;-55
2021/12/25 09:24:00;;;;;;;1.90;1.80;;;0.80;99.90;;;;;;5057615;28;20233;-54
2021/12/25 09:26:28;;;;;;;2.57;2.37;;;0.80;99.90;;;;;;5059032;28;20206;-56
2021/12/25 09:28:56;;;;;;;2.20;2.10;;;0.90;99.90;;;;;;5058586;28;20222;-55
2021/12/25 09:31:26;;;;;;;2.30;2.10;;;0.80;99.90;;;;;;5059475;28;20253;-54
2021/12/25 09:33:54;;;;;;;2.77;2.47;;;0.70;99.90;;;;;;5059537;28;20271;-53
2021/12/25 09:36:23;;;;;;;3.43;3.13;;;0.70;99.90;;;;;;5063543;28;20205;-56
2021/12/25 09:38:51;;;;;;;3.00;2.50;;;0.60;99.90;;;;;;5053912;28;20656;-54
2021/12/25 09:41:19;;;;;;;2.90;2.70;;;0.60;99.90;;;;;;5061914;28;20202;-55
2021/12/25 09:43:49;;;;;;;2.60;2.13;;;0.70;99.90;;;;;;5061697;28;20727;-54
2021/12/25 09:46:18;;;;;;;4.87;1.97;;;0.70;99.90;;;;;;5062023;28;20550;-53
2021/12/25 09:48:50;;;;;;;5.60;5.03;;;0.70;99.90;;;;;;5058411;28;20650;-53
2021/12/25 09:51:18;;;;;;;2.27;2.07;;;0.80;99.90;;;;;;5070050;28;20215;-54
2021/12/25 09:53:56;;;;;;;2.33;2.23;;;0.70;99.90;;;;;;5061583;28;20205;-54
2021/12/25 09:56:24;;;;;;;17.23;10.73;;;0.80;99.90;;;;;;5070831;28;20244;-55
2021/12/25 09:58:52;;;;;;;3.10;2.80;;;0.80;99.90;;;;;;5071959;28;20320;-57
2021/12/25 10:01:35;;;;;;;3.80;3.50;;;0.80;99.90;;;;;;5070758;28;20201;-53
2021/12/25 10:04:06;;;;;;;2.60;2.40;;;0.80;99.90;;;;;;5071890;28;20714;-55
2021/12/25 10:06:42;;;;;;;4.10;3.70;;;0.80;99.90;;;;;;5074655;28;20205;-54
2021/12/25 10:09:18;;;;;;;3.60;2.40;;;0.70;99.90;;;;;;5074145;28;20632;-55
2021/12/25 10:11:59;;;;;;;3.57;3.00;;;0.70;99.90;;;;;;5073170;28;20745;-55
2021/12/25 10:14:27;;;;;;;3.07;2.87;;;0.60;99.90;;;;;;5070547;28;20298;-54
2021/12/25 10:16:56;;;;;;;4.80;4.40;;;0.60;99.90;;;;;;5072084;28;20212;-55
2021/12/25 10:19:31;;;;;;;2.97;2.77;;;0.70;99.90;;;;;;5074249;28;20676;-55
2021/12/25 10:22:08;;;;;;;3.30;3.00;;;0.70;99.90;;;;;;5073774;28;20717;-54
2021/12/25 10:24:47;;;;;;;4.40;3.20;;;0.60;99.90;;;;;;5073921;28;20653;-54
2021/12/25 10:27:17;;;;;;;3.07;2.83;;;0.70;99.90;;;;;;5073166;28;20214;-55
2021/12/25 10:29:46;;;;;;;5.10;2.50;;;0.70;99.90;;;;;;5076276;28;20685;-54
2021/12/25 10:32:18;;;;;;;2.90;2.70;;;0.80;99.90;;;;;;5072170;28;20261;-53
2021/12/25 10:34:49;;;;;;;3.20;2.60;;;0.80;99.90;;;;;;5072990;28;20238;-55
2021/12/25 10:37:19;;;;;;;3.17;2.80;;;0.80;99.90;;;;;;5073865;28;20245;-55
2021/12/25 10:39:48;;;;;;;3.20;2.93;;;0.80;99.90;;;;;;5073795;28;20663;-54
2021/12/25 10:42:20;;;;;;;3.00;2.70;;;0.90;99.90;;;;;;5072478;28;20748;-54
2021/12/25 10:44:50;;;;;;;4.60;2.50;;;0.90;99.90;;;;;;5070443;28;20233;-55
2021/12/25 10:47:20;;;;;;;3.23;2.93;;;1.00;99.90;;;;;;5072561;28;20244;-54
2021/12/25 10:49:54;;;;;;;3.20;2.90;;;0.90;99.90;;;;;;5072148;28;20214;-54
2021/12/25 10:52:26;;;;;;;2.80;2.50;;;1.00;99.90;;;;;;5069799;28;20300;-53
2021/12/25 10:54:56;;;;;;;2.87;2.57;;;0.80;99.90;;;;;;5072716;28;20286;-53
2021/12/25 10:57:35;;;;;;;2.50;2.30;;;0.90;99.90;;;;;;5072862;28;20214;-54
2021/12/25 11:00:07;;;;;;;2.50;2.30;;;1.00;99.90;;;;;;5064868;28;20262;-53
2021/12/25 11:02:37;;;;;;;5.67;3.80;;;1.00;99.90;;;;;;5073473;28;20253;-54
2021/12/25 11:05:19;;;;;;;2.67;2.47;;;1.00;99.90;;;;;;5073132;28;20240;-54
2021/12/25 11:07:49;;;;;;;2.60;2.40;;;1.00;99.90;;;;;;5070388;28;20737;-54
2021/12/25 11:10:18;;;;;;;2.40;2.20;;;0.90;99.90;;;;;;5071247;28;20214;-54
2021/12/25 11:12:47;;;;;;;3.73;2.63;;;0.90;99.90;;;;;;5073143;28;20228;-54
2021/12/25 11:15:19;;;;;;;8.07;5.20;;;0.90;99.90;;;;;;5073714;28;20239;-53
2021/12/25 11:17:52;;;;;;;2.90;2.70;;;0.90;99.90;;;;;;5073539;28;20202;-54
2021/12/25 11:20:30;;;;;;;3.30;2.17;;;0.70;99.90;;;;;;5073541;28;20242;-54
2021/12/25 11:23:00;;;;;;;2.80;2.60;;;0.70;99.90;;;;;;5071218;28;20201;-56
2021/12/25 11:25:30;;;;;;;2.20;2.00;;;0.70;99.90;;;;;;5073551;28;20230;-55
2021/12/25 11:28:00;;;;;;;2.83;2.60;;;0.80;99.90;;;;;;5069484;28;20209;-55
2021/12/25 11:30:30;;;;;;;2.90;2.00;;;0.70;99.90;;;;;;5068115;28;20236;-56
2021/12/25 11:33:00;;;;;;;2.57;2.37;;;0.80;99.90;;;;;;5073017;28;20255;-54
2021/12/25 11:35:34;;;;;;;2.20;2.10;;;0.70;99.90;;;;;;5072930;28;20236;-55
2021/12/25 11:38:04;;;;;;;2.47;2.10;;;0.70;99.90;;;;;;5073100;28;20214;-53
2021/12/25 11:40:34;;;;;;;4.20;3.17;;;0.50;99.90;;;;;;5073208;28;20206;-54
2021/12/25 11:43:04;;;;;;;2.20;2.00;;;0.40;99.90;;;;;;5069684;28;20275;-56
2021/12/25 11:45:36;;;;;;;2.90;2.70;;;0.60;99.90;;;;;;5073909;28;20263;-54
2021/12/25 11:48:15;;;;;;;3.70;3.40;;;0.50;99.90;;;;;;5074105;28;20248;-55
2021/12/25 11:50:47;;;;;;;3.20;2.90;;;0.50;99.90;;;;;;5073279;28;20585;-54
2021/12/25 11:53:21;;;;;;;3.17;2.43;;;0.50;99.90;;;;;;5073494;28;20224;-55
2021/12/25 11:58:48;;;;;;;4.43;3.90;;;0.40;99.90;;;;;;5069643;28;20260;-54
2021/12/25 12:01:29;;;;;;;3.80;2.20;;;0.30;99.90;;;;;;5073441;28;20239;-54
2021/12/25 12:03:59;;;;;;;2.93;2.50;;;0.40;99.90;;;;;;5071912;28;20229;-54
2021/12/25 12:07:01;;;;;;;3.47;2.70;;;0.40;99.90;;;;;;5071219;28;20216;-55
2021/12/25 12:09:32;;;;;;;2.93;2.40;;;0.50;99.90;;;;;;5070888;28;20205;-55
2021/12/25 12:12:17;;;;;;;2.80;2.23;;;0.60;99.90;;;;;;5065726;28;20222;-55
2021/12/25 12:14:46;;;;;;;3.50;2.83;;;0.70;99.90;;;;;;5066061;28;20225;-55
2021/12/25 12:17:31;;;;;;;2.70;2.37;;;0.70;99.90;;;;;;5071313;28;20245;-54
2021/12/25 12:20:03;;;;;;;28.93;17.53;;;0.70;99.90;;;;;;5066706;28;20206;-54
2021/12/25 12:22:47;;;;;;;25.97;16.23;;;0.60;99.90;;;;;;5071604;28;20213;-55
2021/12/25 12:25:24;;;;;;;9.17;6.27;;;0.60;99.90;;;;;;5063856;28;20234;-53
2021/12/25 12:27:54;;;;;;;10.57;7.83;;;0.60;99.90;;;;;;5058326;28;20280;-55
2021/12/25 12:30:44;;;;;;;4.97;3.40;;;0.70;99.90;;;;;;5068886;28;20201;-55
2021/12/25 12:33:32;;;;;;;3.17;2.87;;;0.70;99.90;;;;;;5070637;28;20745;-55
2021/12/25 12:36:02;;;;;;;66.43;45.63;;;0.70;99.90;;;;;;5070084;28;20238;-54
2021/12/25 12:38:39;;;;;;;5.17;3.57;;;0.80;99.90;;;;;;5066906;28;20210;-55
2021/12/25 12:41:16;;;;;;;105.07;81.20;;;0.70;99.90;;;;;;5052849;28;20215;-54
2021/12/25 12:44:09;;;;;;;5.77;4.87;;;0.70;99.90;;;;;;5055145;28;20248;-53
2021/12/25 12:47:04;;;;;;;3.47;3.17;;;0.50;99.90;;;;;;5036826;28;20258;-55
2021/12/25 12:49:53;;;;;;;33.57;25.40;;;0.50;99.90;;;;;;5062570;28;20293;-53
2021/12/25 12:52:24;;;;;;;5.47;3.57;;;0.60;99.90;;;;;;5053494;28;20226;-55
2021/12/25 12:54:56;;;;;;;5.63;4.30;;;0.50;99.90;;;;;;5051156;28;20231;-55
2021/12/25 12:57:28;;;;;;;4.90;3.60;;;0.50;99.90;;;;;;5050792;28;20672;-54
2021/12/25 12:59:58;;;;;;;3.83;3.00;;;0.40;99.90;;;;;;5053165;28;20208;-54
2021/12/25 13:02:31;;;;;;;4.40;4.00;;;0.40;99.90;;;;;;5062481;28;20211;-54
2021/12/25 13:05:04;;;;;;;3.97;3.40;;;0.30;99.90;;;;;;5055247;28;20260;-55
2021/12/25 13:07:35;;;;;;;3.43;3.13;;;0.30;99.90;;;;;;5065925;28;20282;-54
2021/12/25 13:10:17;;;;;;;4.13;3.73;;;0.30;99.90;;;;;;5066805;28;20265;-54
2021/12/25 13:12:49;;;;;;;4.33;3.10;;;0.20;99.90;;;;;;5057625;28;20280;-56
2021/12/25 13:15:19;;;;;;;3.53;3.23;;;0.30;99.90;;;;;;5059948;28;20766;-54
2021/12/25 13:17:53;;;;;;;4.23;3.30;;;0.10;99.90;;;;;;5068027;28;20278;-54
2021/12/25 13:20:39;;;;;;;5.00;4.33;;;0.10;99.90;;;;;;5067605;28;20207;-54
2021/12/25 13:23:08;;;;;;;3.23;3.00;;;0.10;99.90;;;;;;5070705;28;20280;-54
2021/12/25 13:25:45;;;;;;;5.43;3.77;;;0.10;99.90;;;;;;5067442;28;20929;-55
2021/12/25 13:28:14;;;;;;;3.53;3.07;;;0.10;99.90;;;;;;5069596;28;20251;-56
2021/12/25 13:30:47;;;;;;;4.77;4.03;;;0.20;99.90;;;;;;5071262;28;20275;-56
2021/12/25 13:33:19;;;;;;;4.40;4.00;;;0.30;99.90;;;;;;5070514;28;20221;-54
2021/12/25 13:35:48;;;;;;;4.80;3.80;;;0.30;99.90;;;;;;5070212;28;20234;-54
2021/12/25 13:38:16;;;;;;;5.27;3.47;;;0.30;99.90;;;;;;5070416;28;20202;-55
2021/12/25 13:40:51;;;;;;;5.10;4.60;;;0.30;99.90;;;;;;5070144;28;20233;-54
2021/12/25 13:43:19;;;;;;;4.70;4.20;;;0.30;99.90;;;;;;5070461;28;20638;-54
2021/12/25 13:45:56;;;;;;;6.33;4.47;;;0.30;99.90;;;;;;5070051;28;20234;-54
2021/12/25 13:48:24;;;;;;;3.80;3.50;;;0.40;99.90;;;;;;5070677;28;20259;-54
2021/12/25 13:51:00;;;;;;;3.50;3.20;;;0.30;99.90;;;;;;5069270;28;20625;-54
2021/12/25 13:53:29;;;;;;;4.30;3.90;;;0.30;99.90;;;;;;5062651;28;20602;-54
2021/12/25 13:56:07;;;;;;;4.40;3.60;;;0.20;99.90;;;;;;5069803;28;20640;-55
2021/12/25 13:58:36;;;;;;;14.83;12.07;;;0.20;99.90;;;;;;5070283;28;20283;-54
2021/12/25 14:01:05;;;;;;;3.70;3.40;;;0.30;99.90;;;;;;5070369;28;20206;-54
2021/12/25 14:03:34;;;;;;;14.40;11.80;;;0.30;99.90;;;;;;5070093;28;20278;-56
2021/12/25 14:06:02;;;;;;;8.30;5.73;;;0.30;99.90;;;;;;5069909;28;20214;-54
2021/12/25 14:08:30;;;;;;;5.47;4.10;;;0.40;99.90;;;;;;5065939;28;20254;-54
2021/12/25 14:11:01;;;;;;;5.50;4.80;;;0.40;99.90;;;;;;5070118;28;20268;-54